Latest Weather Observations for Mount Moornapa

IDV60801

Issued at 6:05 pm EDT Sunday 23 November 2014 (issued every 30 minutes, with the page automatically refreshed every 10 minutes)

About weather observations | Map of weather stations | Latest weather observations for VIC | Other Formats
Station Details ID: 085296 Name: MOUNT MOORNAPA Lat: -37.75 Lon: 147.14 Height: 480.0 m
Data from the previous 72 hours. | See also: Recent months at Mount Moornapa
Date/Time
EDT
Temp
°C
App
Temp
°C
Dew
Point
Rel
Hum
%
Delta-T
°C
Wind Press
QNH
hPa
Press
MSL
hPa
Rain
since 9 am
mm
Dir
 
Spd
km/h
Gust
km/h
Spd
kts
Gust
kts
23/06:00pm 18.1 16.5 8.7 54 5.0 SE 7 15 4 8 - - 0.0
23/05:30pm 18.2 16.9 9.8 58 4.6 SE 7 17 4 9 - - 0.0
23/05:00pm 19.0 17.4 10.3 57 4.8 SE 9 17 5 9 - - 0.0
23/04:30pm 21.4 20.3 12.0 55 5.4 SE 9 24 5 13 - - 0.0
23/04:00pm 22.5 21.6 12.7 54 5.7 SE 9 17 5 9 - - 0.0
23/03:30pm 23.0 22.2 12.9 53 5.9 SE 9 19 5 10 - - 0.0
23/03:00pm 23.9 23.4 13.7 53 6.1 SE 9 22 5 12 - - 0.0
23/02:30pm 24.1 23.6 13.9 53 6.1 SE 9 17 5 9 - - 0.0
23/02:00pm 23.8 22.8 13.4 52 6.2 SE 11 22 6 12 - - 0.0
23/01:30pm 24.7 24.3 14.2 52 6.3 SSE 9 20 5 11 - - 0.0
23/01:00pm 23.9 23.6 13.4 51 6.2 SE 7 17 4 9 - - 0.0
23/12:30pm 22.7 22.5 13.7 56 5.3 SE 7 13 4 7 - - 0.0
23/12:00pm 22.5 22.6 14.4 60 4.9 SE 7 17 4 9 - - 0.0
23/11:30am 22.1 21.9 13.7 59 5.0 SE 7 13 4 7 - - 0.0
23/11:00am 21.2 21.1 13.4 61 4.6 SE 6 15 3 8 - - 0.0
23/10:30am 20.7 20.6 13.4 63 4.3 ESE 6 9 3 5 - - 0.0
23/10:00am 19.8 20.1 13.3 66 3.8 SE 4 13 2 7 - - 0.0
23/09:30am 19.1 19.2 12.8 67 3.6 SE 4 7 2 4 - - 0.0
23/09:00am 18.2 18.2 12.4 69 3.3 SE 4 9 2 5 - - 0.4
23/08:30am 16.4 16.5 11.6 73 2.7 S 2 4 1 2 - - 0.4
23/08:00am 15.3 15.7 11.1 76 2.3 CALM 0 0 0 0 - - 0.4
23/07:30am 15.0 15.0 11.2 78 2.1 S 2 6 1 3 - - 0.4
23/07:00am 14.1 13.6 12.0 87 1.2 SSE 6 9 3 5 - - 0.4
23/06:30am 15.0 14.1 10.8 76 2.3 SSE 6 9 3 5 - - 0.2
23/06:00am 15.0 14.0 10.4 74 2.5 SSW 6 15 3 8 - - 0.2
23/05:30am 15.2 14.1 10.8 75 2.4 SSW 7 20 4 11 - - 0.2
23/05:00am 15.4 14.0 10.8 74 2.5 S 9 15 5 8 - - 0.2
23/04:30am 15.7 14.7 10.9 73 2.6 S 7 15 4 8 - - 0.2
23/04:00am 16.4 15.1 11.3 72 2.8 S 9 15 5 8 - - 0.2
23/03:30am 16.9 16.0 11.2 69 3.1 W 7 17 4 9 - - 0.2
23/03:00am 18.8 16.8 13.9 73 2.9 W 17 32 9 17 - - 0.2
23/02:30am 20.7 19.4 12.4 59 4.8 W 11 20 6 11 - - 0.0
23/02:00am 21.4 20.5 12.5 57 5.1 WNW 9 22 5 12 - - 0.0
23/01:30am 23.1 22.0 10.5 45 7.1 W 7 17 4 9 - - 0.0
23/01:00am 23.1 21.0 9.8 43 7.4 NW 11 24 6 13 - - 0.0
23/12:30am 23.2 21.4 9.6 42 7.5 NW 9 20 5 11 - - 0.0
23/12:00am 23.3 21.4 9.0 40 7.9 NW 9 22 5 12 - - 0.0
 
Date/Time
EDT
Temp
°C
App
Temp
°C
Dew
Point
Rel
Hum
%
Delta-T
°C
Wind Press
QNH
hPa
Press
MSL
hPa
Rain
since 9 am
mm
Dir
 
Spd
km/h
Gust
km/h
Spd
kts
Gust
kts
22/11:30pm 23.2 21.2 8.5 39 8.0 NW 9 20 5 11 - - 0.0
22/11:00pm 23.8 21.1 7.4 35 8.8 NW 11 26 6 14 - - 0.0
22/10:30pm 24.2 21.7 6.5 32 9.3 NW 9 20 5 11 - - 0.0
22/10:00pm 25.3 22.6 5.5 28 10.3 NW 9 30 5 16 - - 0.0
22/09:30pm 24.5 21.8 5.8 30 9.8 NW 9 19 5 10 - - 0.0
22/09:00pm 24.9 20.7 5.7 29 10.0 NNW 17 37 9 20 - - 0.0
22/08:30pm 24.3 21.6 5.6 30 9.7 NNW 9 22 5 12 - - 0.0
22/08:00pm 24.5 21.5 5.8 30 9.8 NNW 11 19 6 10 - - 0.0
22/07:30pm 25.2 21.8 5.9 29 10.1 NNW 13 26 7 14 - - 0.0
22/07:00pm 25.7 22.9 6.8 30 10.1 N 11 22 6 12 - - 0.0
22/06:30pm 26.6 24.1 8.1 31 10.2 NNW 11 28 6 15 - - 0.0
22/06:00pm 27.7 24.9 7.0 27 11.2 NNW 11 24 6 13 - - 0.0
22/05:30pm 28.5 27.8 10.2 32 10.5 NNW 4 11 2 6 - - 0.0
22/05:00pm 27.9 27.4 9.2 31 10.5 NW 2 6 1 3 - - 0.0
22/04:30pm 28.9 27.8 10.6 32 10.6 NW 7 20 4 11 - - 0.0
22/04:00pm 27.7 27.1 11.7 37 9.4 NNW 6 13 3 7 - - 0.0
22/03:30pm 26.4 26.8 14.8 49 7.1 NNW 6 13 3 7 - - 0.0
22/03:00pm 25.2 25.3 14.0 49 6.8 N 6 11 3 6 - - 0.0
22/02:30pm 23.5 23.9 14.8 58 5.3 NE 6 9 3 5 - - 0.0
22/02:00pm 24.3 24.2 13.2 50 6.6 NNW 6 9 3 5 - - 0.0
22/01:30pm 24.4 24.5 11.4 44 7.5 N 2 7 1 4 - - 0.0
22/01:00pm 24.9 25.1 11.8 44 7.6 SSE 2 4 1 2 - - 0.0
22/12:30pm 23.7 23.6 10.7 44 7.4 ESE 2 4 1 2 - - 0.0
22/12:00pm 22.9 22.2 10.0 44 7.2 S 4 7 2 4 - - 0.0
22/11:30am 22.3 21.8 10.8 48 6.5 S 4 7 2 4 - - 0.0
22/11:00am 21.9 21.7 11.9 53 5.7 S 4 11 2 6 - - 0.0
22/10:30am 21.5 21.5 12.4 56 5.3 S 4 7 2 4 - - 0.0
22/10:00am 20.9 21.4 12.8 60 4.7 S 2 6 1 3 - - 0.0
22/09:30am 19.4 19.6 11.9 62 4.3 S 2 6 1 3 - - 0.0
22/09:00am 19.4 18.7 8.4 49 5.8 NNE 2 7 1 4 - - 0.0
22/08:30am 16.5 14.6 10.6 68 3.2 N 11 15 6 8 - - 0.0
22/08:00am 14.9 12.1 10.1 73 2.6 N 15 20 8 11 - - 0.0
22/07:30am 13.9 12.3 10.1 78 2.0 N 9 13 5 7 - - 0.0
22/07:00am 13.3 11.0 10.3 82 1.6 N 13 17 7 9 - - 0.0
22/06:30am 13.1 10.4 10.5 84 1.4 N 15 22 8 12 - - 0.0
22/06:00am 12.3 10.3 10.2 87 1.1 N 11 13 6 7 - - 0.0
22/05:30am 12.6 11.3 10.0 84 1.4 N 7 11 4 6 - - 0.0
22/05:00am 12.4 10.7 9.8 84 1.4 N 9 13 5 7 - - 0.0
22/04:30am 12.8 11.0 9.4 80 1.8 NNE 9 15 5 8 - - 0.0
22/04:00am 13.4 11.3 9.6 78 2.0 NNE 11 20 6 11 - - 0.0
22/03:30am 12.5 10.4 9.9 84 1.4 N 11 20 6 11 - - 0.0
22/03:00am 12.2 10.4 9.4 83 1.5 NNE 9 15 5 8 - - 0.0
22/02:30am 13.2 11.5 9.8 80 1.8 NNE 9 13 5 7 - - 0.0
22/02:00am 13.1 11.3 9.4 78 1.9 NNE 9 13 5 7 - - 0.0
22/01:30am 14.2 12.8 9.4 73 2.5 NNE 7 9 4 5 - - 0.0
22/01:00am 13.9 13.0 10.5 80 1.8 NNE 6 7 3 4 - - 0.0
22/12:30am 13.8 12.4 10.8 82 1.6 N 9 11 5 6 - - 0.0
22/12:00am 13.5 11.4 11.0 85 1.3 N 13 15 7 8 - - 0.0
 
Date/Time
EDT
Temp
°C
App
Temp
°C
Dew
Point
Rel
Hum
%
Delta-T
°C
Wind Press
QNH
hPa
Press
MSL
hPa
Rain
since 9 am
mm
Dir
 
Spd
km/h
Gust
km/h
Spd
kts
Gust
kts
21/11:30pm 13.0 11.5 10.7 86 1.2 N 9 11 5 6 - - 0.0
21/11:00pm 13.1 11.6 10.6 85 1.3 N 9 11 5 6 - - 0.0
21/10:30pm 12.9 11.4 10.4 85 1.3 N 9 11 5 6 - - 0.0
21/10:00pm 12.7 10.7 10.2 85 1.3 NNE 11 15 6 8 - - 0.0
21/09:30pm 11.9 10.6 10.1 89 0.9 E 7 15 4 8 - - 0.0
21/09:00pm 12.3 10.7 10.2 87 1.1 E 9 19 5 10 - - 0.0
21/08:30pm 12.7 11.5 10.2 85 1.3 E 7 17 4 9 - - 0.0
21/08:00pm 13.7 11.7 10.1 79 1.9 E 11 19 6 10 - - 0.0
21/07:30pm 15.4 14.4 10.2 71 2.8 E 6 15 3 8 - - 0.0
21/07:00pm 17.4 16.5 10.8 65 3.6 ESE 6 15 3 8 - - 0.0
21/06:30pm 18.3 17.3 10.9 62 4.1 ESE 7 19 4 10 - - 0.0
21/06:00pm 20.0 19.1 10.7 55 5.2 SSE 6 13 3 7 - - 0.0
21/05:30pm 20.5 19.5 10.3 52 5.6 SSE 6 9 3 5 - - 0.0
21/05:00pm 21.4 20.6 10.9 51 5.9 S 6 9 3 5 - - 0.0
21/04:30pm 21.6 21.1 11.9 54 5.6 S 6 9 3 5 - - 0.0
21/04:00pm 22.3 21.7 12.3 53 5.8 S 7 15 4 8 - - 0.0
21/03:30pm 21.8 21.3 12.1 54 5.6 S 6 17 3 9 - - 0.0
21/03:00pm 21.4 20.8 12.3 56 5.2 S 7 13 4 7 - - 0.0
21/02:30pm 21.3 20.8 12.7 58 5.0 S 7 11 4 6 - - 0.0
21/02:00pm 19.6 19.6 12.4 63 4.1 S 4 11 2 6 - - 0.0
21/01:30pm 19.3 19.1 13.5 69 3.4 SSE 7 13 4 7 - - 0.0
21/01:00pm 17.6 16.7 12.5 72 2.9 SSE 9 13 5 7 - - 0.0
21/12:30pm 17.0 15.9 12.1 73 2.8 S 9 15 5 8 - - 0.0
21/12:00pm 17.1 16.4 12.0 72 2.9 S 7 13 4 7 - - 0.0
21/11:30am 17.0 16.2 12.9 77 2.3 S 9 26 5 14 - - 0.0
21/11:00am 17.4 16.5 11.4 68 3.3 S 7 19 4 10 - - 0.0
21/10:30am 18.0 17.6 13.1 73 2.8 SSW 7 17 4 9 - - 0.0
21/10:00am 15.2 15.0 13.6 90 0.9 S 7 13 4 7 - - 0.0
21/09:30am 15.0 15.0 13.5 91 0.9 S 6 13 3 7 - - 0.0
21/09:00am 14.9 15.0 13.8 93 0.6 S 6 11 3 6 - - 0.0
21/08:30am 14.6 14.4 13.5 93 0.6 SSE 7 13 4 7 - - 0.0
21/08:00am 14.1 13.8 13.3 95 0.5 S 7 17 4 9 - - 0.0
21/07:30am 14.2 13.6 13.4 95 0.5 S 9 17 5 9 - - 0.0
21/07:00am 14.8 13.6 12.8 88 1.1 S 11 22 6 12 - - 0.0
21/06:30am 19.0 19.1 11.6 62 4.2 WNW 2 6 1 3 - - 0.0
21/06:00am 19.1 18.8 11.4 61 4.3 N 4 9 2 5 - - 0.0
21/05:30am 18.5 17.9 11.6 64 3.9 NNW 6 11 3 6 - - 0.0
21/05:00am 18.6 17.0 11.7 64 3.9 WNW 11 20 6 11 - - 0.0
21/04:30am 18.1 17.3 11.7 66 3.6 W 7 13 4 7 - - 0.0
21/04:00am 17.3 16.7 11.6 69 3.2 S 6 11 3 6 - - 0.0
21/03:30am 18.0 17.3 11.3 65 3.7 SSW 6 9 3 5 - - 0.0
21/03:00am 18.2 17.6 11.7 66 3.6 S 6 9 3 5 - - 0.0
21/02:30am 18.7 18.6 10.8 60 4.4 WNW 2 7 1 4 - - 0.0
21/02:00am 19.2 18.4 11.0 59 4.6 NNE 6 7 3 4 - - 0.0
21/01:30am 18.5 18.2 11.3 63 4.0 NE 4 7 2 4 - - 0.0
21/01:00am 18.6 17.9 11.9 65 3.8 NNE 7 11 4 6 - - 0.0
21/12:30am 18.6 17.2 12.1 66 3.7 NNW 11 20 6 11 - - 0.0
21/12:00am 17.9 16.5 13.4 75 2.6 N 13 30 7 16 - - 0.0
 
Date/Time
EDT
Temp
°C
App
Temp
°C
Dew
Point
Rel
Hum
%
Delta-T
°C
Wind Press
QNH
hPa
Press
MSL
hPa
Rain
since 9 am
mm
Dir
 
Spd
km/h
Gust
km/h
Spd
kts
Gust
kts
20/11:30pm 17.9 17.0 13.8 77 2.4 N 11 15 6 8 - - 0.0
20/11:00pm 17.9 17.8 13.8 77 2.4 NNE 7 11 4 6 - - 0.0
20/10:30pm 17.5 17.7 14.2 81 1.9 E 6 7 3 4 - - 0.0
20/10:00pm 18.1 18.2 14.0 77 2.4 ENE 6 11 3 6 - - 0.0
20/09:30pm 18.1 18.2 14.0 77 2.4 E 6 9 3 5 - - 0.0
20/09:00pm 18.5 18.9 13.8 74 2.7 ENE 4 7 2 4 - - 0.0
20/08:30pm 18.7 19.2 14.0 74 2.8 SE 4 7 2 4 - - 0.0
20/08:00pm 19.0 19.0 13.6 71 3.1 S 6 9 3 5 - - 0.0
20/07:30pm 19.5 18.9 13.4 68 3.6 S 9 17 5 9 - - 0.0
20/07:00pm 20.5 18.9 12.7 61 4.5 S 13 22 7 12 - - 0.0
20/06:30pm 21.5 20.0 11.8 54 5.5 S 11 26 6 14 - - 0.0

Other Formats:

Comma delimited format used in spreadsheet applications
http://www.bom.gov.au/fwo/IDV60801/IDV60801.95913.axf

JavaScript Object Notation format (JSON) in row-major order
http://www.bom.gov.au/fwo/IDV60801/IDV60801.95913.json